createdAt,value
2018-03-24T00:01:39.715Z,20.03
2018-03-24T00:04:08.572Z,20.50
2018-03-24T00:06:36.051Z,24.40
2018-03-24T00:09:04.132Z,20.90
2018-03-24T00:11:32.670Z,21.80
2018-03-24T00:14:00.122Z,21.43
2018-03-24T00:16:30.123Z,20.80
2018-03-24T00:18:58.807Z,20.17
2018-03-24T00:21:28.222Z,19.23
2018-03-24T00:23:56.707Z,20.20
2018-03-24T00:26:24.180Z,22.27
2018-03-24T00:28:51.898Z,18.93
2018-03-24T00:31:19.360Z,17.93
2018-03-24T00:33:47.602Z,19.47
2018-03-24T00:36:15.098Z,20.57
2018-03-24T00:38:43.330Z,18.53
2018-03-24T00:41:10.803Z,20.23
2018-03-24T00:43:38.298Z,16.70
2018-03-24T00:46:05.768Z,18.40
2018-03-24T00:48:33.283Z,22.63
2018-03-24T00:51:00.757Z,19.80
2018-03-24T00:53:28.245Z,18.57
2018-03-24T00:55:55.702Z,16.73
2018-03-24T00:58:23.216Z,18.43
2018-03-24T01:00:51.452Z,21.90
2018-03-24T01:03:18.922Z,23.90
2018-03-24T01:05:46.415Z,20.93
2018-03-24T01:08:14.658Z,24.53
2018-03-24T01:10:42.125Z,20.10
2018-03-24T01:13:09.619Z,21.33
2018-03-24T01:15:37.096Z,19.37
2018-03-24T01:18:04.555Z,21.33
2018-03-24T01:20:32.253Z,22.03
2018-03-24T01:22:59.709Z,24.30
2018-03-24T01:25:27.173Z,22.23
2018-03-24T01:27:55.439Z,22.00
2018-03-24T01:30:22.901Z,23.30
2018-03-24T01:32:50.379Z,26.87
2018-03-24T01:35:18.647Z,25.17
2018-03-24T01:37:46.874Z,28.00
2018-03-24T01:40:14.341Z,26.70
2018-03-24T01:42:42.043Z,26.03
2018-03-24T01:45:10.270Z,23.70
2018-03-24T01:47:37.742Z,26.20
2018-03-24T01:50:05.226Z,25.40
2018-03-24T01:52:33.455Z,26.50
2018-03-24T01:55:00.915Z,24.83
2018-03-24T01:57:28.408Z,25.53
2018-03-24T01:59:56.635Z,23.60
2018-03-24T02:02:24.138Z,25.20
2018-03-24T02:04:52.370Z,23.40
2018-03-24T02:07:19.836Z,23.77
2018-03-24T02:09:47.518Z,30.10
2018-03-24T02:12:14.987Z,27.03
2018-03-24T02:14:42.443Z,27.83
2018-03-24T02:17:10.686Z,23.30
2018-03-24T02:19:38.151Z,28.27
2018-03-24T02:22:05.645Z,29.10
2018-03-24T02:24:33.907Z,26.60
2018-03-24T02:27:01.364Z,25.83
2018-03-24T02:29:28.826Z,27.50
2018-03-24T02:31:57.088Z,26.30
2018-03-24T02:34:24.550Z,29.80
2018-03-24T02:36:52.826Z,24.80
2018-03-24T02:39:20.320Z,27.33
2018-03-24T02:41:47.793Z,26.47
2018-03-24T02:44:15.258Z,24.50
2018-03-24T02:46:42.743Z,30.33
2018-03-24T02:49:10.311Z,28.83
2018-03-24T02:51:38.537Z,28.83
2018-03-24T02:54:06.338Z,32.13
2018-03-24T02:56:33.808Z,29.20
2018-03-24T02:59:02.034Z,32.23
2018-03-24T03:01:29.510Z,28.70
2018-03-24T03:03:56.984Z,29.67
2018-03-24T03:06:24.442Z,28.47
2018-03-24T03:08:52.699Z,25.57
2018-03-24T03:11:20.158Z,28.13
2018-03-24T03:13:47.634Z,26.70
2018-03-24T03:16:15.908Z,28.00
2018-03-24T03:18:43.367Z,25.83
2018-03-24T03:21:10.825Z,25.60
2018-03-24T03:23:39.073Z,31.50
2018-03-24T03:26:06.538Z,25.33
2018-03-24T03:28:34.026Z,28.60
2018-03-24T03:31:04.899Z,22.73
2018-03-24T03:33:32.371Z,32.33
2018-03-24T03:35:59.858Z,30.30
2018-03-24T03:38:27.322Z,27.10
2018-03-24T03:40:55.558Z,24.90
2018-03-24T03:43:23.038Z,23.80
2018-03-24T03:45:50.511Z,28.23
2018-03-24T03:48:18.740Z,23.40
2018-03-24T03:50:46.226Z,25.83
2018-03-24T03:53:13.698Z,23.90
2018-03-24T03:55:41.158Z,24.93
2018-03-24T03:58:09.404Z,21.30
2018-03-24T04:00:36.876Z,25.07
2018-03-24T04:03:05.161Z,25.50
2018-03-24T04:05:33.378Z,24.07
2018-03-24T04:08:00.883Z,26.67
2018-03-24T04:10:28.351Z,26.07
2018-03-24T04:12:56.580Z,29.57
2018-03-24T04:15:24.063Z,25.43
2018-03-24T04:17:51.535Z,24.93
2018-03-24T04:20:19.763Z,28.87
2018-03-24T04:22:47.234Z,25.93
2018-03-24T04:25:14.707Z,29.83
2018-03-24T04:27:43.682Z,27.13
2018-03-24T04:30:11.376Z,29.83
2018-03-24T04:32:39.607Z,28.07
2018-03-24T04:35:07.069Z,26.20
2018-03-24T04:37:34.563Z,25.90
2018-03-24T04:40:02.805Z,28.20
2018-03-24T04:42:30.268Z,28.60
2018-03-24T04:44:57.754Z,28.73
2018-03-24T04:47:25.991Z,27.03
2018-03-24T04:49:53.454Z,29.40
2018-03-24T04:52:20.948Z,29.13
2018-03-24T04:54:49.179Z,29.60
2018-03-24T04:57:16.653Z,28.13
2018-03-24T04:59:44.137Z,32.77
2018-03-24T05:02:12.372Z,34.87
2018-03-24T05:04:39.849Z,29.67
2018-03-24T05:07:07.321Z,30.03
2018-03-24T05:09:36.112Z,32.30
2018-03-24T05:12:04.362Z,34.17
2018-03-24T05:14:31.826Z,42.77
2018-03-24T05:16:59.307Z,37.07
2018-03-24T05:19:27.558Z,48.17
2018-03-24T05:21:55.015Z,38.23
2018-03-24T05:24:22.512Z,39.50
2018-03-24T05:26:49.999Z,39.47
2018-03-24T05:29:17.455Z,39.23
2018-03-24T05:31:44.931Z,41.30
2018-03-24T05:34:12.411Z,46.67
2018-03-24T05:36:40.635Z,41.03
2018-03-24T05:39:08.091Z,40.63
2018-03-24T05:41:35.577Z,37.63
2018-03-24T05:44:03.035Z,39.63
2018-03-24T05:46:30.523Z,39.53
2018-03-24T05:48:58.758Z,35.03
2018-03-24T05:51:26.218Z,38.63
2018-03-24T05:53:53.699Z,33.80
2018-03-24T05:56:21.926Z,38.87
2018-03-24T05:58:49.392Z,38.53
2018-03-24T06:01:16.864Z,35.23
2018-03-24T06:03:44.340Z,38.67
2018-03-24T06:06:12.611Z,36.93
2018-03-24T06:08:40.077Z,30.93
2018-03-24T06:11:08.296Z,30.20
2018-03-24T06:13:35.778Z,33.63
2018-03-24T06:16:04.749Z,33.27
2018-03-24T06:18:32.247Z,34.60
2018-03-24T06:20:59.723Z,35.10
2018-03-24T06:23:27.956Z,33.77
2018-03-24T06:25:55.443Z,33.60
2018-03-24T06:28:23.685Z,31.87
2018-03-24T06:30:52.920Z,36.93
2018-03-24T06:33:21.183Z,36.63
2018-03-24T06:35:48.646Z,38.30
2018-03-24T06:38:16.879Z,40.63
2018-03-24T06:40:44.519Z,35.60
2018-03-24T06:43:11.979Z,36.07
2018-03-24T06:45:39.447Z,37.27
2018-03-24T06:48:07.153Z,37.90
2018-03-24T06:50:34.628Z,33.17
2018-03-24T06:53:02.862Z,37.93
2018-03-24T06:55:30.344Z,36.50
2018-03-24T06:57:58.579Z,38.23
2018-03-24T07:00:26.042Z,38.93
2018-03-24T07:02:53.510Z,30.97
2018-03-24T07:05:20.986Z,36.00
2018-03-24T07:07:49.384Z,35.70
2018-03-24T07:10:18.172Z,34.70
2018-03-24T07:12:46.339Z,36.07
2018-03-24T07:15:15.231Z,31.57
2018-03-24T07:17:43.467Z,30.60
2018-03-24T07:20:13.020Z,34.93
2018-03-24T07:22:41.084Z,32.70
2018-03-24T07:25:09.770Z,36.40
2018-03-24T07:27:37.589Z,29.83
2018-03-24T07:30:08.454Z,34.57
2018-03-24T07:32:37.576Z,34.43
2018-03-24T07:35:05.604Z,33.77
2018-03-24T07:37:33.074Z,33.63
2018-03-24T07:40:02.143Z,41.13
2018-03-24T07:42:30.397Z,32.13
2018-03-24T07:44:57.854Z,32.07
2018-03-24T07:47:26.283Z,34.27
2018-03-24T07:49:55.106Z,27.57
2018-03-24T07:52:22.571Z,30.10
2018-03-24T07:54:51.405Z,28.00
2018-03-24T07:57:18.895Z,25.60
2018-03-24T07:59:46.366Z,28.90
2018-03-24T08:02:13.853Z,28.60
2018-03-24T08:04:43.088Z,24.27
2018-03-24T08:07:11.327Z,27.43
2018-03-24T08:09:38.846Z,27.60
2018-03-24T08:12:07.164Z,27.23
2018-03-24T08:14:35.567Z,24.40
2018-03-24T08:17:03.818Z,28.37
2018-03-24T08:19:32.070Z,24.93
2018-03-24T08:21:59.542Z,25.83
2018-03-24T08:24:29.159Z,27.83
2018-03-24T08:26:56.627Z,24.23
2018-03-24T08:29:24.850Z,30.70
2018-03-24T08:31:52.570Z,30.63
2018-03-24T08:34:21.039Z,33.17
2018-03-24T08:36:49.094Z,32.03
2018-03-24T08:39:17.646Z,29.53
2018-03-24T08:41:45.102Z,32.97
2018-03-24T08:44:13.249Z,30.53
2018-03-24T08:46:43.602Z,32.53
2018-03-24T08:49:12.532Z,35.03
2018-03-24T08:51:40.776Z,32.23
2018-03-24T08:54:10.391Z,29.37
2018-03-24T08:56:37.856Z,30.17
2018-03-24T08:59:06.411Z,36.90
2018-03-24T09:01:34.319Z,30.13
2018-03-24T09:04:01.791Z,35.00
2018-03-24T09:06:30.057Z,36.83
2018-03-24T09:08:57.561Z,36.53
2018-03-24T09:11:26.953Z,42.60
2018-03-24T09:13:55.874Z,42.00
2018-03-24T09:16:23.336Z,44.10
2018-03-24T09:18:50.806Z,39.33
2018-03-24T09:21:18.279Z,41.43
2018-03-24T09:23:45.784Z,40.03
2018-03-24T09:26:13.266Z,38.77
2018-03-24T09:28:40.738Z,40.63
2018-03-24T09:31:09.711Z,37.57
2018-03-24T09:33:37.198Z,38.63
2018-03-24T09:36:04.668Z,35.90
2018-03-24T09:38:32.891Z,35.27
2018-03-24T09:41:00.594Z,40.27
2018-03-24T09:43:28.054Z,37.77
2018-03-24T09:45:56.296Z,35.20
2018-03-24T09:48:23.975Z,36.17
2018-03-24T09:50:51.439Z,37.73
2018-03-24T09:53:18.899Z,35.33
2018-03-24T09:55:46.555Z,33.63
2018-03-24T09:58:14.030Z,36.50
2018-03-24T10:00:42.250Z,32.70
2018-03-24T10:03:09.734Z,33.40
2018-03-24T10:05:37.203Z,31.17
2018-03-24T10:08:05.439Z,26.50
2018-03-24T10:10:32.939Z,28.70
2018-03-24T10:13:01.191Z,24.97
2018-03-24T10:15:28.658Z,27.47
2018-03-24T10:17:57.650Z,24.23
2018-03-24T10:20:25.111Z,27.83
2018-03-24T10:23:01.480Z,27.50
2018-03-24T10:25:28.941Z,27.17
2018-03-24T10:27:57.178Z,21.73
2018-03-24T10:30:24.670Z,25.27
2018-03-24T10:32:52.131Z,27.97
2018-03-24T10:35:19.598Z,27.67
2018-03-24T10:37:53.668Z,28.50
2018-03-24T10:40:21.153Z,25.30
2018-03-24T10:42:54.301Z,29.07
2018-03-24T10:45:21.761Z,31.43
2018-03-24T10:47:49.233Z,35.87
2018-03-24T10:50:16.715Z,26.77
2018-03-24T10:52:44.963Z,28.33
2018-03-24T10:55:12.431Z,26.83
2018-03-24T10:57:39.907Z,26.17
2018-03-24T11:00:08.142Z,29.33
2018-03-24T11:02:35.614Z,32.27
2018-03-24T11:05:04.040Z,28.93
2018-03-24T11:07:31.526Z,22.90
2018-03-24T11:09:59.005Z,21.77
2018-03-24T11:12:26.495Z,23.53
2018-03-24T11:14:54.723Z,23.33
2018-03-24T11:17:22.192Z,22.60
2018-03-24T11:19:49.675Z,21.60
2018-03-24T11:22:17.903Z,18.90
2018-03-24T11:24:45.381Z,20.03
2018-03-24T11:27:12.870Z,23.10
2018-03-24T11:29:41.112Z,20.90
2018-03-24T11:32:08.568Z,20.23
2018-03-24T11:34:36.055Z,18.40
2018-03-24T11:37:04.278Z,18.70
2018-03-24T11:39:31.734Z,24.90
2018-03-24T11:41:59.429Z,24.33
2018-03-24T11:44:27.070Z,19.63
2018-03-24T11:46:54.546Z,23.00
2018-03-24T11:49:23.342Z,22.20
2018-03-24T11:51:51.573Z,20.37
2018-03-24T11:54:30.801Z,19.50
2018-03-24T11:56:58.263Z,20.70
2018-03-24T11:59:25.735Z,26.63
2018-03-24T12:01:53.283Z,21.43
2018-03-24T12:04:21.463Z,23.43
2018-03-24T12:06:48.939Z,21.50
2018-03-24T12:09:16.431Z,19.37
2018-03-24T12:11:43.902Z,22.07
2018-03-24T12:14:11.415Z,20.63
2018-03-24T12:16:39.075Z,26.40
2018-03-24T12:19:07.319Z,19.60
2018-03-24T12:21:34.783Z,19.77
2018-03-24T12:24:02.426Z,18.27
2018-03-24T12:26:29.895Z,17.87
2018-03-24T12:28:57.346Z,21.00
2018-03-24T12:31:24.835Z,19.77
2018-03-24T12:33:52.348Z,20.93
2018-03-24T12:36:19.821Z,21.00
2018-03-24T12:38:47.315Z,24.43
2018-03-24T12:41:15.579Z,21.93
2018-03-24T12:43:43.088Z,23.90
2018-03-24T12:46:13.328Z,22.77
2018-03-24T12:48:40.807Z,22.00
2018-03-24T12:51:08.284Z,23.57
2018-03-24T12:53:36.596Z,25.47
2018-03-24T12:56:04.072Z,18.77
2018-03-24T12:58:31.546Z,22.63
2018-03-24T13:00:59.034Z,20.73
2018-03-24T13:03:27.274Z,16.23
2018-03-24T13:05:54.746Z,14.70
2018-03-24T13:08:22.242Z,14.83
2018-03-24T13:10:49.711Z,17.83
2018-03-24T13:13:17.184Z,19.00
2018-03-24T13:15:44.674Z,16.37
2018-03-24T13:18:12.148Z,17.60
2018-03-24T13:20:40.383Z,19.77
2018-03-24T13:23:07.914Z,15.90
2018-03-24T13:25:35.488Z,21.53
2018-03-24T13:28:02.983Z,19.83
2018-03-24T13:30:30.496Z,15.70
2018-03-24T13:32:57.968Z,16.47
2018-03-24T13:35:25.433Z,16.57
2018-03-24T13:37:52.914Z,13.27
2018-03-24T13:40:20.379Z,19.40
2018-03-24T13:42:49.300Z,18.37
2018-03-24T13:45:16.774Z,13.43
2018-03-24T13:47:44.241Z,14.10
2018-03-24T13:50:11.776Z,16.43
2018-03-24T13:52:39.254Z,15.97
2018-03-24T13:55:06.767Z,16.53
2018-03-24T13:57:35.000Z,16.07
2018-03-24T14:00:02.513Z,16.87
2018-03-24T14:02:29.990Z,16.50
2018-03-24T14:04:57.473Z,18.30
2018-03-24T14:07:24.952Z,17.30
2018-03-24T14:09:53.177Z,16.80
2018-03-24T14:12:20.644Z,15.13
2018-03-24T14:14:48.182Z,19.80
2018-03-24T14:17:15.642Z,16.27
2018-03-24T14:19:43.106Z,15.63
2018-03-24T14:22:10.606Z,17.30
2018-03-24T14:24:38.070Z,14.47
2018-03-24T14:27:06.331Z,18.03
2018-03-24T14:29:33.840Z,14.57
2018-03-24T14:32:01.304Z,15.30
2018-03-24T14:34:28.767Z,16.33
2018-03-24T14:36:56.310Z,14.30
2018-03-24T14:39:23.878Z,17.20
2018-03-24T14:41:51.338Z,15.63
2018-03-24T14:44:18.835Z,17.50
2018-03-24T14:46:46.324Z,15.50
2018-03-24T14:49:13.803Z,15.60
2018-03-24T14:51:41.288Z,16.07
2018-03-24T14:54:08.751Z,16.70
2018-03-24T14:56:36.331Z,14.40
2018-03-24T14:59:03.762Z,18.27
2018-03-24T15:01:31.245Z,14.33
2018-03-24T15:03:59.506Z,18.07
2018-03-24T15:06:26.999Z,14.40
2018-03-24T15:08:55.252Z,13.63
2018-03-24T15:11:23.515Z,16.50
2018-03-24T15:13:51.074Z,15.37
2018-03-24T15:16:18.554Z,13.50
2018-03-24T15:18:46.818Z,15.60
2018-03-24T15:21:15.051Z,14.70
2018-03-24T15:23:42.512Z,14.83
2018-03-24T15:26:09.995Z,13.77
2018-03-24T15:28:37.484Z,16.40
2018-03-24T15:34:21.097Z,15.83
2018-03-24T15:36:50.103Z,14.17
2018-03-24T15:39:18.352Z,13.87
2018-03-24T15:41:45.818Z,19.17
2018-03-24T15:44:13.306Z,14.40
2018-03-24T15:46:41.550Z,13.57
2018-03-24T15:49:09.020Z,13.07
2018-03-24T15:51:36.519Z,14.83
2018-03-24T15:54:03.981Z,16.30
2018-03-24T15:56:31.446Z,14.73
2018-03-24T15:58:58.993Z,14.83
2018-03-24T16:01:26.450Z,13.67
2018-03-24T16:03:53.915Z,15.33
2018-03-24T16:06:21.411Z,14.70
2018-03-24T16:08:48.873Z,12.37
2018-03-24T16:11:16.451Z,13.20
2018-03-24T16:13:44.712Z,16.50
2018-03-24T16:16:12.179Z,15.87
2018-03-24T16:18:40.433Z,17.93
2018-03-24T16:21:09.410Z,14.07
2018-03-24T16:23:36.871Z,14.93
2018-03-24T16:26:04.355Z,15.07
2018-03-24T16:28:32.010Z,14.03
2018-03-24T16:30:59.466Z,12.57
2018-03-24T16:33:27.703Z,15.33
2018-03-24T16:35:55.195Z,14.97
2018-03-24T16:38:22.663Z,18.33
2018-03-24T16:40:50.898Z,13.47
2018-03-24T16:43:18.375Z,17.07
2018-03-24T16:45:45.867Z,16.70
2018-03-24T16:48:14.119Z,16.80
2018-03-24T16:50:42.361Z,14.83
2018-03-24T16:53:09.823Z,13.87
2018-03-24T16:55:37.315Z,15.83
2018-03-24T16:58:05.557Z,17.90
2018-03-24T17:00:33.052Z,14.10
2018-03-24T17:03:01.291Z,17.37
2018-03-24T17:05:28.750Z,18.10
2018-03-24T17:07:56.267Z,14.70
2018-03-24T17:10:23.727Z,13.93
2018-03-24T17:12:51.216Z,17.13
2018-03-24T17:15:18.695Z,17.00
2018-03-24T17:17:46.194Z,17.57
2018-03-24T17:20:13.670Z,15.23
2018-03-24T17:22:41.147Z,13.90
2018-03-24T17:25:08.611Z,16.70
2018-03-24T17:27:36.862Z,11.97
2018-03-24T17:30:04.335Z,13.20
2018-03-24T17:32:32.573Z,15.10
2018-03-24T17:35:00.056Z,15.83
2018-03-24T17:37:27.519Z,16.30
2018-03-24T17:39:54.983Z,12.40
2018-03-24T17:42:23.235Z,17.13
2018-03-24T17:44:50.695Z,12.03
2018-03-24T17:47:18.186Z,16.47
2018-03-24T17:49:45.652Z,14.57
2018-03-24T17:52:13.880Z,15.63
2018-03-24T17:54:41.364Z,15.47
2018-03-24T17:57:08.835Z,16.07
2018-03-24T17:59:37.102Z,15.43
2018-03-24T18:02:04.612Z,16.37
2018-03-24T18:04:32.102Z,21.33
2018-03-24T18:07:01.066Z,17.53
2018-03-24T18:09:28.566Z,14.67
2018-03-24T18:11:56.788Z,15.60
2018-03-24T18:14:24.255Z,16.80
2018-03-24T18:16:51.739Z,21.77
2018-03-24T18:19:19.204Z,20.37
2018-03-24T18:21:47.471Z,18.47
2018-03-24T18:24:14.940Z,16.63
2018-03-24T18:26:42.409Z,14.33
2018-03-24T18:29:10.655Z,18.30
2018-03-24T18:31:38.122Z,16.87
2018-03-24T18:34:05.590Z,16.77
2018-03-24T18:36:33.843Z,15.30
2018-03-24T18:39:02.067Z,20.10
2018-03-24T18:41:29.554Z,17.70
2018-03-24T18:43:57.035Z,17.37
2018-03-24T18:46:25.998Z,24.33
2018-03-24T18:48:53.471Z,23.57
2018-03-24T18:51:21.162Z,23.87
2018-03-24T18:53:48.626Z,23.60
2018-03-24T18:56:16.847Z,22.33
2018-03-24T18:58:44.326Z,23.47
2018-03-24T19:01:11.794Z,23.90
2018-03-24T19:03:39.254Z,22.43
2018-03-24T19:06:06.738Z,23.27
2018-03-24T19:08:34.961Z,21.90
2018-03-24T19:11:02.438Z,22.60
2018-03-24T19:13:30.680Z,21.50
2018-03-24T19:15:58.138Z,20.97
2018-03-24T19:18:25.631Z,20.63
2018-03-24T19:20:53.863Z,19.07
2018-03-24T19:23:21.352Z,19.87
2018-03-24T19:25:48.929Z,21.93
2018-03-24T19:28:16.423Z,21.17
2018-03-24T19:30:43.903Z,18.90
2018-03-24T19:33:11.384Z,18.40
2018-03-24T19:35:38.849Z,21.07
2018-03-24T19:38:06.303Z,22.40
2018-03-24T19:40:34.567Z,17.73
2018-03-24T19:43:02.058Z,21.80
2018-03-24T19:45:30.544Z,22.27
2018-03-24T19:47:58.795Z,20.50
2018-03-24T19:50:26.275Z,18.23
2018-03-24T19:52:53.776Z,22.77
2018-03-24T19:55:21.246Z,22.23
2018-03-24T19:57:48.739Z,26.23
2018-03-24T20:00:16.995Z,19.67
2018-03-24T20:02:45.239Z,20.00
2018-03-24T20:05:12.763Z,29.53
2018-03-24T20:07:40.242Z,26.77
2018-03-24T20:10:07.712Z,24.70
2018-03-24T20:12:35.184Z,23.33
2018-03-24T20:15:02.689Z,18.17
2018-03-24T20:17:30.158Z,22.30
2018-03-24T20:19:57.648Z,18.13
2018-03-24T20:22:25.122Z,19.77
2018-03-24T20:24:52.622Z,21.67
2018-03-24T20:27:20.099Z,18.03
2018-03-24T20:29:47.585Z,22.80
2018-03-24T20:32:15.875Z,22.10
2018-03-24T20:34:43.334Z,21.83
2018-03-24T20:37:11.571Z,21.37
2018-03-24T20:39:39.141Z,27.50
2018-03-24T20:42:06.600Z,21.30
2018-03-24T20:44:34.084Z,23.60
2018-03-24T20:47:02.486Z,26.57
2018-03-24T20:49:29.995Z,24.37
2018-03-24T20:51:57.468Z,21.43
2018-03-24T20:54:24.992Z,25.23
2018-03-24T20:56:52.542Z,27.77
2018-03-24T20:59:20.014Z,26.80
2018-03-24T21:01:47.648Z,26.70
2018-03-24T21:04:15.109Z,24.93
2018-03-24T21:06:42.600Z,25.83
2018-03-24T21:09:10.901Z,24.13
2018-03-24T21:11:39.206Z,22.77
2018-03-24T21:14:06.729Z,21.20
2018-03-24T21:16:34.218Z,23.37
2018-03-24T21:19:01.680Z,21.03
2018-03-24T21:21:29.150Z,23.20
2018-03-24T21:23:56.727Z,26.63
2018-03-24T21:26:24.195Z,26.37
2018-03-24T21:28:51.707Z,26.20
2018-03-24T21:31:19.214Z,20.17
2018-03-24T21:33:46.686Z,22.13
2018-03-24T21:36:14.179Z,26.60
2018-03-24T21:38:41.667Z,21.20
2018-03-24T21:41:09.133Z,23.33
2018-03-24T21:43:36.599Z,26.20
2018-03-24T21:46:04.081Z,23.30
2018-03-24T21:48:32.317Z,23.13
2018-03-24T21:50:59.787Z,23.10
2018-03-24T21:53:28.050Z,22.10
2018-03-24T21:55:55.516Z,26.70
2018-03-24T21:58:23.012Z,22.70
2018-03-24T22:00:51.260Z,29.20
2018-03-24T22:03:18.737Z,27.93
2018-03-24T22:05:46.983Z,27.40
2018-03-24T22:08:22.537Z,28.03
2018-03-24T22:10:50.911Z,23.87
2018-03-24T22:13:18.381Z,25.20
2018-03-24T22:15:46.612Z,23.50
2018-03-24T22:18:14.103Z,25.60
2018-03-24T22:20:41.571Z,21.97
2018-03-24T22:25:44.610Z,20.77
2018-03-24T22:28:12.082Z,24.87
2018-03-24T22:30:39.558Z,29.00
2018-03-24T22:33:07.070Z,25.53
2018-03-24T22:35:34.677Z,25.13
2018-03-24T22:38:02.127Z,24.90
2018-03-24T22:40:29.808Z,27.63
2018-03-24T22:42:57.278Z,26.57
2018-03-24T22:45:25.532Z,24.47
2018-03-24T22:47:53.003Z,33.40
2018-03-24T22:50:21.246Z,24.03
2018-03-24T22:52:48.730Z,28.70
2018-03-24T22:55:16.258Z,24.87
2018-03-24T22:57:43.718Z,36.30
2018-03-24T23:00:11.203Z,30.07
2018-03-24T23:02:38.669Z,26.60
2018-03-24T23:05:06.925Z,26.23
2018-03-24T23:07:34.448Z,26.97
2018-03-24T23:10:01.935Z,27.07
2018-03-24T23:12:32.693Z,35.30
2018-03-24T23:15:00.982Z,26.80
2018-03-24T23:17:28.450Z,24.37
2018-03-24T23:19:55.947Z,26.40
2018-03-24T23:22:23.415Z,24.47
2018-03-24T23:24:50.894Z,29.00
2018-03-24T23:27:19.158Z,23.13
2018-03-24T23:29:46.618Z,28.73
2018-03-24T23:32:14.082Z,27.17
2018-03-24T23:34:42.550Z,31.63
2018-03-24T23:37:10.116Z,25.47
2018-03-24T23:39:38.353Z,22.80
2018-03-24T23:42:05.901Z,23.30
2018-03-24T23:44:33.354Z,23.90
2018-03-24T23:47:00.819Z,24.30
2018-03-24T23:49:28.317Z,27.77
2018-03-24T23:51:56.558Z,26.77
2018-03-24T23:54:24.055Z,27.10
2018-03-24T23:56:52.278Z,29.10
2018-03-24T23:59:19.763Z,32.63
